To NAV CANADA Home Page Login to a new session Search on AWWS site Feedback and Comments Disclaimer Vers la page française équivalente Tips FAQ What's new on the site To the Forecasts and Observations / NOTAM section To "File a Flight Plan" website Publications and other links Update of the User's profile FIC Telephone Numbers My Weather Data Folder Route Weather Data Regional Weather Data Local Weather Data To the Forecasts and Observations / NOTAM section
Request Generated 04/27/2015 at 09:03:35 UTC . Weather information available at that time is displayed.

METAR/TAF

CHURCHILL/MB    (show WxCam)

METAR CYYQ 270800Z 05010KT 15SM FEW010 SCT110 BKN240 M05/M05 A3037
RMK SF2AC2CI1 SLP287=
METAR CYYQ 270700Z 06009KT 15SM FEW010 SCT095 BKN240 M05/M06 A3037
RMK SF2AC2CI2 SLP288=
METAR CYYQ 270600Z 05008KT 15SM SCT037 BKN090 M05/M05 A3039 RMK
SC4AC3 SLP293=

TAF CYYQ 270538Z 2706/2806 06008KT P6SM SCT012 OVC030 TEMPO 2706/2710
3SM -SN BR OVC012
FM271000 10012KT 1SM -SN BR OVC006 TEMPO 2710/2721 P6SM NSW
OVC012
FM272100 11012KT 3/4SM -SN BR OVC004
BECMG 2801/2803 06008KT
RMK NXT FCST BY 271200Z=
Your time UTC time
Weather data provided by Environment Canada and NAV CANADA